Time,TemperatureF,DewpointF,PressureIn,WindDirection,WindDirectionDegrees,WindSpeedMPH,WindSpeedGustMPH,Humidity,HourlyPrecipIn,Conditions,Clouds,dailyrainin,SolarRadiationWatts/m^2,SoftwareType,DateUTC
2013-01-12 00:02:00,2.0,-8.0,-100.00,North,3,1.0,5.0,62,0.00,,,0.00,0.000000,,2013-01-12 07:02:00,
2013-01-12 00:32:00,-2.0,-10.0,-100.00,North,5,1.0,2.0,69,0.00,,,0.00,0.000000,,2013-01-12 07:32:00,
2013-01-12 00:42:00,-2.0,-10.0,-100.00,North,5,1.0,2.0,69,0.00,,,0.00,0.000000,,2013-01-12 07:42:00,
2013-01-12 00:52:00,-2.0,-10.0,-100.00,North,5,1.0,2.0,69,0.00,,,0.00,0.000000,,2013-01-12 07:52:00,
2013-01-12 01:02:00,-2.0,-10.0,-100.00,North,5,1.0,2.0,69,0.00,,,0.00,0.000000,,2013-01-12 08:02:00,
2013-01-12 01:32:00,-4.0,-10.0,-100.00,NNE,19,1.0,2.0,75,0.00,,,0.00,0.000000,,2013-01-12 08:32:00,
2013-01-12 01:42:00,-4.0,-10.0,-100.00,NNE,19,1.0,2.0,75,0.00,,,0.00,0.000000,,2013-01-12 08:42:00,
2013-01-12 01:52:00,-4.0,-10.0,-100.00,NNE,19,1.0,2.0,75,0.00,,,0.00,0.000000,,2013-01-12 08:52:00,
2013-01-12 02:02:00,-4.0,-10.0,-100.00,NNE,19,1.0,2.0,75,0.00,,,0.00,0.000000,,2013-01-12 09:02:00,
2013-01-12 02:32:00,-5.0,-10.0,-100.00,NNW,344,0.0,2.0,77,0.00,,,0.00,0.000000,,2013-01-12 09:32:00,
2013-01-12 02:42:00,-5.0,-10.0,-100.00,NNW,344,0.0,2.0,77,0.00,,,0.00,0.000000,,2013-01-12 09:42:00,
2013-01-12 02:53:00,-5.0,-10.0,-100.00,NNW,344,0.0,2.0,77,0.00,,,0.00,0.000000,,2013-01-12 09:53:00,
2013-01-12 03:02:00,-5.0,-10.0,-100.00,NNW,344,0.0,2.0,77,0.00,,,0.00,0.000000,,2013-01-12 10:02:00,
2013-01-12 03:32:00,-7.0,-13.0,-100.00,WSW,248,0.0,1.0,76,0.00,,,0.00,0.000000,,2013-01-12 10:32:00,
2013-01-12 03:43:00,-7.0,-13.0,-100.00,WSW,248,0.0,1.0,76,0.00,,,0.00,0.000000,,2013-01-12 10:43:00,
2013-01-12 03:52:00,-7.0,-13.0,-100.00,WSW,248,0.0,1.0,76,0.00,,,0.00,0.000000,,2013-01-12 10:52:00,
2013-01-12 04:02:00,-7.0,-13.0,-100.00,WSW,248,0.0,1.0,76,0.00,,,0.00,0.000000,,2013-01-12 11:02:00,
2013-01-12 04:33:00,-7.0,-13.0,-100.00,WSW,257,0.0,2.0,75,0.00,,,0.00,0.000000,,2013-01-12 11:33:00,
2013-01-12 04:42:00,-7.0,-13.0,-100.00,WSW,257,0.0,2.0,75,0.00,,,0.00,0.000000,,2013-01-12 11:42:00,
2013-01-12 04:53:00,-7.0,-13.0,-100.00,WSW,257,0.0,2.0,75,0.00,,,0.00,0.000000,,2013-01-12 11:53:00,
2013-01-12 05:02:00,-7.0,-13.0,-100.00,WSW,257,0.0,2.0,75,0.00,,,0.00,0.000000,,2013-01-12 12:02:00,
2013-01-12 05:33:00,-7.0,-13.0,-100.00,North,8,1.0,2.0,73,0.00,,,0.00,0.000000,,2013-01-12 12:33:00,
2013-01-12 05:43:00,-7.0,-13.0,-100.00,North,8,1.0,2.0,73,0.00,,,0.00,0.000000,,2013-01-12 12:43:00,
2013-01-12 05:52:00,-7.0,-13.0,-100.00,North,8,1.0,2.0,73,0.00,,,0.00,0.000000,,2013-01-12 12:52:00,
2013-01-12 06:02:00,-7.0,-13.0,-100.00,North,8,1.0,2.0,73,0.00,,,0.00,0.000000,,2013-01-12 13:02:00,
2013-01-12 06:33:00,-8.0,-14.0,-100.00,ENE,74,0.0,3.0,75,0.00,,,0.00,0.000000,,2013-01-12 13:33:00,
2013-01-12 06:43:00,-8.0,-14.0,-100.00,ENE,74,0.0,3.0,75,0.00,,,0.00,0.000000,,2013-01-12 13:43:00,
2013-01-12 06:53:00,-8.0,-14.0,-100.00,ENE,74,0.0,3.0,75,0.00,,,0.00,0.000000,,2013-01-12 13:53:00,
2013-01-12 07:02:00,-8.0,-14.0,-100.00,ENE,74,0.0,3.0,75,0.00,,,0.00,0.000000,,2013-01-12 14:02:00,
2013-01-12 07:33:00,-10.0,-17.0,-100.00,NNE,24,1.0,2.0,71,0.00,,,0.00,0.000000,,2013-01-12 14:33:00,
2013-01-12 07:43:00,-10.0,-17.0,-100.00,NNE,24,1.0,2.0,71,0.00,,,0.00,0.000000,,2013-01-12 14:43:00,
2013-01-12 07:53:00,-10.0,-17.0,-100.00,NNE,24,1.0,2.0,71,0.00,,,0.00,0.000000,,2013-01-12 14:53:00,
2013-01-12 08:03:00,-10.0,-17.0,-100.00,NNE,24,1.0,2.0,71,0.00,,,0.00,0.000000,,2013-01-12 15:03:00,
2013-01-12 08:33:00,-10.0,-17.0,-100.00,SW,226,1.0,2.0,72,0.00,,,-99.99,6.000000,,2013-01-12 15:33:00,
2013-01-12 08:43:00,-10.0,-17.0,-100.00,SW,226,1.0,2.0,72,0.00,,,-99.99,6.000000,,2013-01-12 15:43:00,
2013-01-12 08:53:00,-10.0,-17.0,-100.00,SW,226,1.0,2.0,72,0.00,,,-99.99,6.000000,,2013-01-12 15:53:00,
2013-01-12 09:02:00,-10.0,-17.0,-100.00,SW,226,1.0,2.0,72,0.00,,,-99.99,6.000000,,2013-01-12 16:02:00,
2013-01-12 09:33:00,6.0,-2.0,-100.00,ENE,62,2.0,6.0,70,0.00,,,0.00,129.000000,,2013-01-12 16:33:00,
2013-01-12 09:43:00,6.0,-2.0,-100.00,ENE,62,2.0,6.0,70,0.00,,,0.00,129.000000,,2013-01-12 16:43:00,
2013-01-12 09:53:00,6.0,-2.0,-100.00,ENE,62,2.0,6.0,70,0.00,,,0.00,129.000000,,2013-01-12 16:53:00,
2013-01-12 10:33:00,20.0,4.0,-100.00,SW,215,5.0,10.0,48,0.00,,,0.00,338.000000,,2013-01-12 17:33:00,
2013-01-12 10:43:00,20.0,4.0,-100.00,SW,215,5.0,10.0,48,0.00,,,0.00,338.000000,,2013-01-12 17:43:00,
2013-01-12 10:53:00,20.0,4.0,-100.00,SW,215,5.0,10.0,48,0.00,,,0.00,338.000000,,2013-01-12 17:53:00,
2013-01-12 11:02:00,20.0,4.0,-100.00,SW,215,5.0,10.0,48,0.00,,,0.00,338.000000,,2013-01-12 18:02:00,
2013-01-12 11:33:00,22.0,0.0,-100.00,WSW,250,6.0,13.0,38,0.00,,,0.00,509.000000,,2013-01-12 18:33:00,
2013-01-12 11:43:00,22.0,0.0,-100.00,WSW,250,6.0,13.0,38,0.00,,,0.00,509.000000,,2013-01-12 18:43:00,
2013-01-12 11:53:00,22.0,0.0,-100.00,WSW,250,6.0,13.0,38,0.00,,,0.00,509.000000,,2013-01-12 18:53:00,
2013-01-12 12:03:00,22.0,0.0,-100.00,WSW,250,6.0,13.0,38,0.00,,,0.00,509.000000,,2013-01-12 19:03:00,
2013-01-12 12:33:00,22.0,-1.0,-100.00,SW,234,6.0,15.0,36,0.00,,,0.00,434.000000,,2013-01-12 19:33:00,
2013-01-12 12:43:00,22.0,-1.0,-100.00,SW,234,6.0,15.0,36,0.00,,,0.00,434.000000,,2013-01-12 19:43:00,
2013-01-12 12:53:00,22.0,-1.0,-100.00,SW,234,6.0,15.0,36,0.00,,,0.00,434.000000,,2013-01-12 19:53:00,
2013-01-12 13:02:00,22.0,-1.0,-100.00,SW,234,6.0,15.0,36,0.00,,,0.00,434.000000,,2013-01-12 20:02:00,
2013-01-12 13:33:00,22.0,-6.0,-100.00,West,275,6.0,13.0,28,0.00,,,0.00,464.000000,,2013-01-12 20:33:00,
2013-01-12 13:43:00,22.0,-6.0,-100.00,West,275,6.0,13.0,28,0.00,,,0.00,464.000000,,2013-01-12 20:43:00,
2013-01-12 13:53:00,22.0,-6.0,-100.00,West,275,6.0,13.0,28,0.00,,,0.00,464.000000,,2013-01-12 20:53:00,
2013-01-12 14:02:00,22.0,-6.0,-100.00,West,275,6.0,13.0,28,0.00,,,0.00,464.000000,,2013-01-12 21:02:00,
2013-01-12 14:33:00,24.0,-4.0,-100.00,WSW,253,9.0,14.0,29,0.00,,,0.00,328.000000,,2013-01-12 21:33:00,
2013-01-12 14:43:00,24.0,-4.0,-100.00,WSW,253,9.0,14.0,29,0.00,,,0.00,328.000000,,2013-01-12 21:43:00,
2013-01-12 14:53:00,24.0,-4.0,-100.00,WSW,253,9.0,14.0,29,0.00,,,0.00,328.000000,,2013-01-12 21:53:00,
2013-01-12 15:02:00,24.0,-4.0,-100.00,WSW,253,9.0,14.0,29,0.00,,,0.00,328.000000,,2013-01-12 22:02:00,
2013-01-12 15:33:00,20.0,-6.0,-100.00,West,261,7.0,17.0,31,0.00,,,0.00,437.000000,,2013-01-12 22:33:00,
2013-01-12 15:43:00,20.0,-6.0,-100.00,West,261,7.0,17.0,31,0.00,,,0.00,437.000000,,2013-01-12 22:43:00,
2013-01-12 15:53:00,20.0,-6.0,-100.00,West,261,7.0,17.0,31,0.00,,,0.00,437.000000,,2013-01-12 22:53:00,
2013-01-12 16:02:00,20.0,-6.0,-100.00,West,261,7.0,17.0,31,0.00,,,0.00,437.000000,,2013-01-12 23:02:00,
2013-01-12 16:33:00,20.0,1.0,-100.00,SW,218,8.0,14.0,42,0.00,,,0.00,235.000000,,2013-01-12 23:33:00,
2013-01-12 16:43:00,20.0,1.0,-100.00,SW,218,8.0,14.0,42,0.00,,,0.00,235.000000,,2013-01-12 23:43:00,
2013-01-12 16:53:00,20.0,1.0,-100.00,SW,218,8.0,14.0,42,0.00,,,0.00,235.000000,,2013-01-12 23:53:00,
2013-01-12 17:02:00,20.0,1.0,-100.00,SW,218,8.0,14.0,42,0.00,,,0.00,235.000000,,2013-01-13 00:02:00,
2013-01-12 17:33:00,19.0,-2.0,-100.00,SW,221,7.0,13.0,38,0.00,,,0.00,86.000000,,2013-01-13 00:33:00,
2013-01-12 17:43:00,19.0,-2.0,-100.00,SW,221,7.0,13.0,38,0.00,,,0.00,86.000000,,2013-01-13 00:43:00,
2013-01-12 17:53:00,19.0,-2.0,-100.00,SW,221,7.0,13.0,38,0.00,,,0.00,86.000000,,2013-01-13 00:53:00,
2013-01-12 18:02:00,19.0,-2.0,-100.00,SW,221,7.0,13.0,38,0.00,,,0.00,86.000000,,2013-01-13 01:02:00,
2013-01-12 18:33:00,15.0,-4.0,-100.00,WSW,245,3.0,12.0,42,0.00,,,0.00,14.000000,,2013-01-13 01:33:00,
2013-01-12 18:43:00,15.0,-4.0,-100.00,WSW,245,3.0,12.0,42,0.00,,,0.00,14.000000,,2013-01-13 01:43:00,
2013-01-12 18:53:00,15.0,-4.0,-100.00,WSW,245,3.0,12.0,42,0.00,,,0.00,14.000000,,2013-01-13 01:53:00,
2013-01-12 19:02:00,15.0,-4.0,-100.00,WSW,245,3.0,12.0,42,0.00,,,0.00,14.000000,,2013-01-13 02:02:00,
2013-01-12 19:33:00,12.0,-3.0,-100.00,WSW,250,2.0,4.0,49,0.00,,,0.00,0.000000,,2013-01-13 02:33:00,
2013-01-12 19:43:00,12.0,-3.0,-100.00,WSW,250,2.0,4.0,49,0.00,,,0.00,0.000000,,2013-01-13 02:43:00,
2013-01-12 19:53:00,12.0,-3.0,-100.00,WSW,250,2.0,4.0,49,0.00,,,0.00,0.000000,,2013-01-13 02:53:00,
2013-01-12 20:02:00,12.0,-3.0,-100.00,WSW,250,2.0,4.0,49,0.00,,,0.00,0.000000,,2013-01-13 03:02:00,
2013-01-12 20:33:00,15.0,-2.0,-100.00,West,271,3.0,5.0,46,0.00,,,0.00,0.000000,,2013-01-13 03:33:00,
2013-01-12 20:43:00,15.0,-2.0,-100.00,West,271,3.0,5.0,46,0.00,,,0.00,0.000000,,2013-01-13 03:43:00,
2013-01-12 20:53:00,15.0,-2.0,-100.00,West,271,3.0,5.0,46,0.00,,,0.00,0.000000,,2013-01-13 03:53:00,
2013-01-12 21:02:00,15.0,-2.0,-100.00,West,271,3.0,5.0,46,0.00,,,0.00,0.000000,,2013-01-13 04:02:00,
2013-01-12 21:33:00,14.0,-4.0,-100.00,West,259,3.0,10.0,44,0.00,,,0.00,0.000000,,2013-01-13 04:33:00,
2013-01-12 21:43:00,14.0,-4.0,-100.00,West,259,3.0,10.0,44,0.00,,,0.00,0.000000,,2013-01-13 04:43:00,
2013-01-12 21:52:00,14.0,-4.0,-100.00,West,259,3.0,10.0,44,0.00,,,0.00,0.000000,,2013-01-13 04:52:00,
2013-01-12 22:03:00,14.0,-4.0,-100.00,West,259,3.0,10.0,44,0.00,,,0.00,0.000000,,2013-01-13 05:03:00,
2013-01-12 22:33:00,11.0,-4.0,-100.00,West,264,3.0,6.0,49,0.00,,,0.00,0.000000,,2013-01-13 05:33:00,
2013-01-12 22:42:00,11.0,-4.0,-100.00,West,264,3.0,6.0,49,0.00,,,0.00,0.000000,,2013-01-13 05:42:00,
2013-01-12 22:53:00,11.0,-4.0,-100.00,West,264,3.0,6.0,49,0.00,,,0.00,0.000000,,2013-01-13 05:53:00,
2013-01-12 23:02:00,11.0,-4.0,-100.00,West,264,3.0,6.0,49,0.00,,,0.00,0.000000,,2013-01-13 06:02:00,
2013-01-12 23:32:00,8.0,-6.0,-100.00,West,269,3.0,6.0,51,0.00,,,0.00,0.000000,,2013-01-13 06:32:00,
2013-01-12 23:42:00,8.0,-6.0,-100.00,West,269,3.0,6.0,51,0.00,,,0.00,0.000000,,2013-01-13 06:42:00,
2013-01-12 23:52:00,8.0,-6.0,-100.00,West,269,3.0,6.0,51,0.00,,,0.00,0.000000,,2013-01-13 06:52:00,